Time;durP1;ratioP1;P1;durP2;ratioP2;P2;SDS_P1;SDS_P2;PMS_P1;PMS_P2;Temp;Humidity;BMP_temperature;BMP_pressure;BME280_temperature;BME280_humidity;BME280_pressure;Samples;Min_cycle;Max_cycle;Signal;HPM_P1;HPM_P2
2022/10/09 00:01:28;;;;;;;3.42;1.35;;;10.60;99.90;;;;;;6266226;22;20019;-78
2022/10/09 00:03:55;;;;;;;5.85;0.98;;;10.50;99.90;;;;;;6266862;22;20203;-79
2022/10/09 00:06:31;;;;;;;2.88;1.10;;;10.50;99.90;;;;;;6266517;22;20024;-79
2022/10/09 00:08:58;;;;;;;2.50;1.10;;;10.40;99.90;;;;;;6242647;22;20381;-79
2022/10/09 00:11:26;;;;;;;4.07;1.38;;;10.40;99.90;;;;;;6266396;22;20073;-79
2022/10/09 00:13:53;;;;;;;3.40;1.00;;;10.40;99.90;;;;;;6267612;22;20023;-78
2022/10/09 00:16:21;;;;;;;3.97;1.30;;;10.30;99.90;;;;;;6240422;22;20031;-78
2022/10/09 00:18:47;;;;;;;4.53;1.17;;;10.30;99.90;;;;;;6241348;22;20034;-78
2022/10/09 00:21:19;;;;;;;3.55;1.20;;;10.30;99.90;;;;;;6266975;22;20023;-79
2022/10/09 00:23:44;;;;;;;7.20;1.20;;;10.30;99.90;;;;;;6242703;22;20016;-78
2022/10/09 00:26:10;;;;;;;4.18;1.25;;;10.20;99.90;;;;;;6240272;22;20754;-79
2022/10/09 00:28:36;;;;;;;4.40;1.23;;;10.20;99.90;;;;;;6267413;22;20058;-78
2022/10/09 00:31:09;;;;;;;3.67;1.10;;;10.20;99.90;;;;;;6268140;22;20016;-79
2022/10/09 00:33:36;;;;;;;3.50;1.10;;;10.10;99.90;;;;;;6268934;22;20780;-79
2022/10/09 00:36:11;;;;;;;5.85;1.33;;;10.10;99.90;;;;;;6242886;22;20031;-79
2022/10/09 00:38:36;;;;;;;3.03;1.00;;;10.00;99.90;;;;;;6269030;22;20026;-79
2022/10/09 00:41:02;;;;;;;3.88;1.33;;;10.00;99.90;;;;;;6221781;22;20024;-78
2022/10/09 00:43:51;;;;;;;4.82;0.93;;;10.00;99.90;;;;;;6274430;22;20031;-78
2022/10/09 00:46:32;;;;;;;2.70;1.30;;;9.90;99.90;;;;;;6268583;22;20016;-79
2022/10/09 00:49:13;;;;;;;3.58;0.90;;;9.90;99.90;;;;;;6242167;22;20016;-78
2022/10/09 00:51:41;;;;;;;4.85;1.50;;;9.80;99.90;;;;;;6267133;22;20020;-78
2022/10/09 00:54:10;;;;;;;2.65;0.82;;;9.80;99.90;;;;;;6242355;22;20022;-78
2022/10/09 00:56:36;;;;;;;2.88;0.80;;;9.80;99.90;;;;;;6266099;22;20016;-79
2022/10/09 00:59:03;;;;;;;5.15;1.33;;;9.70;99.90;;;;;;6191497;22;20347;-79
2022/10/09 01:01:29;;;;;;;5.25;1.20;;;9.70;99.90;;;;;;6240956;22;20016;-78
2022/10/09 01:03:54;;;;;;;3.88;1.00;;;9.60;99.90;;;;;;6241809;22;20333;-79
2022/10/09 01:06:49;;;;;;;3.25;1.23;;;9.50;99.90;;;;;;6216881;22;20055;-79
2022/10/09 01:09:37;;;;;;;3.45;1.10;;;9.50;99.90;;;;;;6243575;22;20095;-78
2022/10/09 01:12:17;;;;;;;2.70;1.40;;;9.50;99.90;;;;;;6243136;22;20019;-79
2022/10/09 01:14:47;;;;;;;2.60;0.98;;;9.50;99.90;;;;;;6243867;22;20506;-78
2022/10/09 01:17:23;;;;;;;2.33;1.48;;;9.40;99.90;;;;;;6269376;22;20042;-79
2022/10/09 01:20:09;;;;;;;3.90;1.20;;;9.40;99.90;;;;;;6243246;22;20019;-80
2022/10/09 01:23:00;;;;;;;3.33;1.08;;;9.30;99.90;;;;;;6243825;22;20023;-79
2022/10/09 01:25:39;;;;;;;2.38;0.93;;;9.30;99.90;;;;;;6242708;22;20019;-79
2022/10/09 01:28:06;;;;;;;3.50;1.10;;;9.30;99.90;;;;;;6269929;22;20053;-79
2022/10/09 01:30:33;;;;;;;4.30;1.20;;;9.20;99.90;;;;;;6217073;22;20011;-78
2022/10/09 01:33:00;;;;;;;2.80;1.00;;;9.20;99.90;;;;;;6244078;22;20023;-79
2022/10/09 01:35:27;;;;;;;2.25;1.00;;;9.20;99.90;;;;;;6268349;22;20098;-79
2022/10/09 01:37:55;;;;;;;3.58;1.10;;;9.10;99.90;;;;;;6243583;22;20064;-78
2022/10/09 01:40:22;;;;;;;5.05;1.05;;;9.10;99.90;;;;;;6268112;22;20019;-79
2022/10/09 01:42:48;;;;;;;2.90;1.00;;;9.10;99.90;;;;;;6218034;22;20336;-79
2022/10/09 01:45:14;;;;;;;2.83;1.00;;;9.10;99.90;;;;;;6243165;22;20533;-79
2022/10/09 01:47:40;;;;;;;4.80;1.20;;;9.00;99.90;;;;;;6242859;22;20074;-79
2022/10/09 01:50:23;;;;;;;4.05;1.00;;;9.00;99.90;;;;;;6243170;22;20016;-79
2022/10/09 01:52:54;;;;;;;2.80;1.00;;;9.00;99.90;;;;;;6242914;22;20059;-79
2022/10/09 01:55:49;;;;;;;2.83;1.02;;;9.00;99.90;;;;;;6242984;22;20020;-79
2022/10/09 01:58:48;;;;;;;2.67;1.05;;;8.90;99.90;;;;;;6243690;22;20024;-79
2022/10/09 02:01:15;;;;;;;2.35;1.02;;;8.90;99.90;;;;;;6243782;22;20091;-79
2022/10/09 02:03:45;;;;;;;4.15;1.15;;;8.80;99.90;;;;;;6241552;22;20024;-79
2022/10/09 02:06:13;;;;;;;3.30;1.10;;;8.80;99.90;;;;;;6242991;22;20020;-79
2022/10/09 02:08:40;;;;;;;2.95;1.17;;;8.80;99.90;;;;;;6267574;22;20024;-80
2022/10/09 02:11:07;;;;;;;4.70;1.40;;;8.80;99.90;;;;;;6269243;22;20027;-80
2022/10/09 02:13:34;;;;;;;6.18;1.20;;;8.70;99.90;;;;;;6268560;22;20046;-80
2022/10/09 02:16:18;;;;;;;4.35;1.45;;;8.70;99.90;;;;;;6268790;22;20020;-80
2022/10/09 02:18:49;;;;;;;4.25;1.52;;;8.70;99.90;;;;;;6242928;22;20012;-80
2022/10/09 02:21:23;;;;;;;5.70;1.50;;;8.70;99.90;;;;;;6244328;22;20023;-80
2022/10/09 02:23:51;;;;;;;2.63;1.20;;;8.60;99.90;;;;;;6268829;22;20020;-80
2022/10/09 02:26:18;;;;;;;2.42;1.10;;;8.60;99.90;;;;;;6216723;22;20031;-81
2022/10/09 02:28:44;;;;;;;3.15;1.30;;;8.60;99.90;;;;;;6192843;22;20042;-80
2022/10/09 02:31:30;;;;;;;5.32;1.27;;;8.60;99.90;;;;;;6217864;22;20016;-80
2022/10/09 02:34:11;;;;;;;5.90;1.55;;;8.60;99.90;;;;;;6268193;22;20028;-80
2022/10/09 02:36:37;;;;;;;4.70;1.30;;;8.60;99.90;;;;;;6267992;22;20027;-80
2022/10/09 02:39:05;;;;;;;4.55;1.40;;;8.50;99.90;;;;;;6243341;22;20015;-80
2022/10/09 02:41:32;;;;;;;4.57;1.73;;;8.50;99.90;;;;;;6242118;22;20016;-80
2022/10/09 02:43:57;;;;;;;4.38;1.33;;;8.50;99.90;;;;;;6241984;22;20106;-80
2022/10/09 02:46:23;;;;;;;4.05;1.55;;;8.50;99.90;;;;;;6267733;22;20121;-80
2022/10/09 02:48:49;;;;;;;4.07;1.38;;;8.40;99.90;;;;;;6217712;22;20137;-80
2022/10/09 02:51:16;;;;;;;4.53;1.48;;;8.50;99.90;;;;;;6243163;22;20023;-80
2022/10/09 02:53:41;;;;;;;3.03;1.33;;;8.40;99.90;;;;;;6242708;22;20055;-80
2022/10/09 02:56:07;;;;;;;3.95;1.40;;;8.40;99.90;;;;;;6243450;22;20343;-80
2022/10/09 02:58:34;;;;;;;5.20;1.63;;;8.40;99.90;;;;;;6193205;22;20047;-79
2022/10/09 03:01:00;;;;;;;5.93;1.40;;;8.40;99.90;;;;;;6242863;22;20019;-79
2022/10/09 03:03:26;;;;;;;4.30;1.35;;;8.40;99.90;;;;;;6243051;22;20466;-79
2022/10/09 03:06:09;;;;;;;3.80;1.40;;;8.30;99.90;;;;;;6242064;22;20447;-79
2022/10/09 03:08:37;;;;;;;3.67;1.30;;;8.30;99.90;;;;;;6220559;22;20016;-79
2022/10/09 03:11:02;;;;;;;5.40;1.42;;;8.30;99.90;;;;;;6268128;22;20019;-80
2022/10/09 03:13:28;;;;;;;3.97;1.50;;;8.30;99.90;;;;;;6243495;22;20057;-79
2022/10/09 03:16:00;;;;;;;2.40;1.35;;;8.30;99.90;;;;;;6241393;22;20012;-79
2022/10/09 03:18:26;;;;;;;4.63;1.40;;;8.20;99.90;;;;;;6268632;22;20169;-78
2022/10/09 03:20:51;;;;;;;3.53;1.40;;;8.20;99.90;;;;;;6215758;22;20474;-78
2022/10/09 03:23:17;;;;;;;2.85;1.10;;;8.20;99.90;;;;;;6267862;22;20749;-79
2022/10/09 03:25:43;;;;;;;3.67;1.30;;;8.20;99.90;;;;;;6215089;22;20042;-79
2022/10/09 03:28:09;;;;;;;4.63;1.20;;;8.70;99.90;;;;;;6242651;22;20015;-79
2022/10/09 03:30:39;;;;;;;5.85;1.75;;;8.10;99.90;;;;;;6267229;22;20019;-79
2022/10/09 03:33:04;;;;;;;5.10;1.63;;;9.80;99.90;;;;;;6242627;22;20026;-79
2022/10/09 03:35:30;;;;;;;2.47;1.45;;;8.10;99.90;;;;;;6215447;22;20517;-79
2022/10/09 03:37:56;;;;;;;2.70;1.40;;;8.10;99.90;;;;;;6268103;22;20206;-79
2022/10/09 03:40:21;;;;;;;3.80;1.65;;;8.40;99.90;;;;;;6242367;22;20069;-79
2022/10/09 03:42:47;;;;;;;4.57;1.40;;;8.10;99.90;;;;;;6241803;22;20051;-78
2022/10/09 03:45:13;;;;;;;2.28;1.27;;;8.00;99.90;;;;;;6242007;22;20443;-79
2022/10/09 03:47:38;;;;;;;4.45;1.60;;;8.00;99.90;;;;;;6218455;22;20022;-79
2022/10/09 03:50:04;;;;;;;2.53;1.50;;;8.00;99.90;;;;;;6217730;22;20055;-79
2022/10/09 03:52:30;;;;;;;3.83;1.60;;;8.00;99.90;;;;;;6218282;22;20094;-79
2022/10/09 03:54:56;;;;;;;4.32;1.80;;;8.00;99.90;;;;;;6266777;22;20757;-78
2022/10/09 03:57:21;;;;;;;5.95;1.40;;;8.00;99.90;;;;;;6243385;22;20095;-78
2022/10/09 03:59:47;;;;;;;5.43;1.65;;;7.90;99.90;;;;;;6217665;22;20085;-79
2022/10/09 04:02:13;;;;;;;3.75;1.63;;;7.00;99.90;;;;;;6243156;22;20438;-78
2022/10/09 04:04:38;;;;;;;2.85;1.60;;;7.90;99.90;;;;;;6243353;22;20015;-78
2022/10/09 04:07:04;;;;;;;2.42;1.40;;;8.10;99.90;;;;;;6243041;22;20015;-80
2022/10/09 04:09:30;;;;;;;4.25;1.50;;;7.90;99.90;;;;;;6243307;22;20349;-78
2022/10/09 04:11:55;;;;;;;3.28;1.27;;;7.60;99.90;;;;;;6217237;22;20062;-78
2022/10/09 04:14:21;;;;;;;3.08;1.45;;;7.90;99.90;;;;;;6268965;22;20454;-78
2022/10/09 04:16:47;;;;;;;4.63;1.67;;;7.80;99.90;;;;;;6257003;22;20094;-78
2022/10/09 04:19:13;;;;;;;3.55;1.60;;;7.80;99.90;;;;;;6256489;22;20016;-78
2022/10/09 04:21:38;;;;;;;3.35;1.67;;;7.80;99.90;;;;;;6246863;22;20031;-78
2022/10/09 04:24:07;;;;;;;3.97;1.95;;;7.80;99.90;;;;;;6267176;22;20222;-78
2022/10/09 04:26:33;;;;;;;6.57;1.92;;;7.80;99.90;;;;;;6242017;22;20440;-78
2022/10/09 04:28:59;;;;;;;4.13;1.90;;;7.80;99.90;;;;;;6239541;22;20023;-78
2022/10/09 04:31:25;;;;;;;5.55;1.92;;;7.80;99.90;;;;;;6242350;22;20187;-78
2022/10/09 04:33:54;;;;;;;3.15;2.08;;;7.80;99.90;;;;;;6191166;22;20020;-78
2022/10/09 04:36:20;;;;;;;2.63;1.80;;;7.80;99.90;;;;;;6266228;22;20754;-79
2022/10/09 04:38:45;;;;;;;3.42;1.80;;;7.80;99.90;;;;;;6266194;22;20447;-79
2022/10/09 04:41:12;;;;;;;4.80;1.90;;;7.80;99.90;;;;;;6242074;22;20015;-79
2022/10/09 04:43:38;;;;;;;3.95;1.75;;;8.30;99.90;;;;;;6267077;22;20039;-79
2022/10/09 04:46:07;;;;;;;6.40;1.90;;;7.70;99.90;;;;;;6266077;22;20727;-79
2022/10/09 04:48:37;;;;;;;5.82;1.98;;;7.70;99.90;;;;;;6241850;22;20073;-79
2022/10/09 04:51:05;;;;;;;5.57;2.00;;;7.70;99.90;;;;;;6240586;22;20022;-79
2022/10/09 04:53:32;;;;;;;3.28;1.60;;;7.60;99.90;;;;;;6242533;22;20078;-79
2022/10/09 04:56:00;;;;;;;5.68;2.30;;;7.60;99.90;;;;;;6266278;22;20023;-79
2022/10/09 04:58:26;;;;;;;4.68;2.15;;;7.60;99.90;;;;;;6269557;22;20019;-79
2022/10/09 05:00:52;;;;;;;5.03;2.10;;;7.60;99.90;;;;;;6241301;22;20361;-79
2022/10/09 05:03:17;;;;;;;8.07;2.70;;;7.60;99.90;;;;;;6267623;22;20018;-79
2022/10/09 05:05:43;;;;;;;5.53;2.40;;;7.60;99.90;;;;;;6266527;22;20019;-79
2022/10/09 05:08:09;;;;;;;4.68;2.50;;;7.60;99.90;;;;;;6241786;22;20098;-79
2022/10/09 05:10:34;;;;;;;4.10;2.47;;;8.90;99.90;;;;;;6241276;22;20368;-78
2022/10/09 05:13:00;;;;;;;5.00;2.67;;;7.60;99.90;;;;;;6240410;22;20012;-79
2022/10/09 05:15:26;;;;;;;4.88;2.75;;;7.60;99.90;;;;;;6241536;22;21031;-79
2022/10/09 05:17:52;;;;;;;7.95;3.10;;;8.30;99.90;;;;;;6265768;22;20015;-79
2022/10/09 05:20:18;;;;;;;5.22;2.90;;;8.20;99.90;;;;;;6268001;22;20474;-79
2022/10/09 05:22:44;;;;;;;5.75;2.92;;;7.50;99.90;;;;;;6241527;22;20133;-79
2022/10/09 05:25:10;;;;;;;5.85;3.33;;;7.50;99.90;;;;;;6240828;22;20015;-78
2022/10/09 05:27:36;;;;;;;7.57;2.88;;;7.50;99.90;;;;;;6191221;22;20024;-78
2022/10/09 05:30:02;;;;;;;4.63;2.83;;;7.50;99.90;;;;;;6266388;22;20027;-79
2022/10/09 05:32:27;;;;;;;5.32;3.00;;;7.50;99.90;;;;;;6266391;22;20020;-79
2022/10/09 05:34:53;;;;;;;4.18;3.03;;;7.90;99.90;;;;;;6265899;22;20020;-79
2022/10/09 05:37:19;;;;;;;5.82;2.95;;;7.40;99.90;;;;;;6267085;22;20023;-79
2022/10/09 05:39:45;;;;;;;4.53;2.70;;;7.50;99.90;;;;;;6265840;22;20313;-79
2022/10/09 05:42:10;;;;;;;4.20;2.40;;;7.40;99.90;;;;;;6240053;22;20040;-79
2022/10/09 05:44:36;;;;;;;4.50;2.80;;;7.50;99.90;;;;;;6215151;22;20487;-79
2022/10/09 05:47:02;;;;;;;6.45;3.00;;;7.40;99.90;;;;;;6264834;22;20023;-79
2022/10/09 05:49:27;;;;;;;4.00;2.60;;;7.40;99.90;;;;;;6240205;22;20064;-79
2022/10/09 05:51:54;;;;;;;5.88;2.85;;;7.50;99.90;;;;;;6240472;22;20090;-79
2022/10/09 05:54:20;;;;;;;5.47;3.08;;;7.50;99.90;;;;;;6192024;22;20023;-79
2022/10/09 05:56:46;;;;;;;4.72;3.10;;;7.50;99.90;;;;;;6242739;22;20026;-79
2022/10/09 05:59:14;;;;;;;4.72;2.80;;;7.50;99.90;;;;;;6242084;22;20078;-78
2022/10/09 06:01:43;;;;;;;6.20;3.28;;;7.50;99.90;;;;;;6242965;22;20058;-81
2022/10/09 06:04:14;;;;;;;5.10;3.05;;;7.70;99.90;;;;;;6241831;22;20016;-80
2022/10/09 06:06:41;;;;;;;7.00;3.40;;;7.50;99.90;;;;;;6241898;22;20447;-80
2022/10/09 06:09:08;;;;;;;5.68;3.25;;;8.30;99.90;;;;;;6241851;22;20028;-80
2022/10/09 06:11:36;;;;;;;5.78;3.50;;;7.60;99.90;;;;;;6242576;22;20019;-80
2022/10/09 06:14:04;;;;;;;6.22;3.38;;;8.00;99.90;;;;;;6242335;22;20053;-80
2022/10/09 06:16:32;;;;;;;6.85;4.38;;;7.60;99.90;;;;;;6268108;22;20051;-81
2022/10/09 06:18:58;;;;;;;6.55;3.92;;;7.70;99.90;;;;;;6242604;22;20020;-81
2022/10/09 06:21:25;;;;;;;6.88;4.35;;;8.20;99.90;;;;;;6268754;22;20027;-80
2022/10/09 06:23:55;;;;;;;10.05;4.40;;;9.00;99.90;;;;;;6267283;22;20050;-80
2022/10/09 06:26:22;;;;;;;9.98;5.00;;;7.80;99.90;;;;;;6267362;22;20049;-82
2022/10/09 06:28:48;;;;;;;8.27;4.97;;;7.90;99.90;;;;;;6243455;22;20023;-82
2022/10/09 06:31:18;;;;;;;7.10;5.10;;;7.10;99.90;;;;;;6241070;22;20111;-81
2022/10/09 06:33:45;;;;;;;9.95;5.20;;;8.00;99.90;;;;;;6267255;22;20019;-81
2022/10/09 06:36:20;;;;;;;13.32;5.07;;;8.00;99.90;;;;;;6267422;22;20050;-82
2022/10/09 06:38:46;;;;;;;7.60;4.20;;;8.10;99.90;;;;;;6243121;22;20053;-81
2022/10/09 06:41:17;;;;;;;11.10;4.93;;;8.10;99.90;;;;;;6216007;22;20022;-81
2022/10/09 06:43:48;;;;;;;8.60;4.60;;;8.20;99.90;;;;;;6243010;22;20081;-81
2022/10/09 06:46:13;;;;;;;6.38;4.43;;;9.20;99.90;;;;;;6267279;22;20046;-82
2022/10/09 06:48:40;;;;;;;5.70;4.47;;;8.20;99.90;;;;;;6217481;22;20467;-81
2022/10/09 06:51:08;;;;;;;6.35;4.80;;;8.20;99.90;;;;;;6241870;22;20018;-81
2022/10/09 06:53:39;;;;;;;7.45;4.70;;;8.30;99.90;;;;;;6267756;22;20016;-81
2022/10/09 06:56:05;;;;;;;5.10;4.45;;;8.30;99.90;;;;;;6241590;22;20046;-81
2022/10/09 06:58:31;;;;;;;7.13;4.65;;;8.30;99.90;;;;;;6219835;22;20016;-82
2022/10/09 07:01:17;;;;;;;6.47;4.07;;;8.30;99.90;;;;;;6268673;22;20035;-81
2022/10/09 07:03:44;;;;;;;;;;;8.40;99.90;;;;;;6270848;22;20112;-81
2022/10/09 07:06:15;;;;;;;5.75;3.33;;;8.40;99.90;;;;;;6242903;22;19915;-81
2022/10/09 07:08:46;;;;;;;8.23;4.50;;;8.40;99.90;;;;;;6242705;22;20024;-82
2022/10/09 07:11:21;;;;;;;6.50;4.30;;;8.30;99.90;;;;;;6266282;22;20501;-81
2022/10/09 07:13:49;;;;;;;8.35;4.57;;;9.00;99.90;;;;;;6242664;22;20028;-81
2022/10/09 07:16:19;;;;;;;8.48;4.70;;;8.50;99.90;;;;;;6240571;22;20022;-81
2022/10/09 07:18:44;;;;;;;5.97;4.05;;;8.60;99.90;;;;;;6242746;22;20020;-82
2022/10/09 07:21:10;;;;;;;8.25;3.97;;;8.70;99.90;;;;;;6240856;22;20077;-82
2022/10/09 07:23:36;;;;;;;9.27;4.50;;;8.70;99.90;;;;;;6267115;22;20084;-82
2022/10/09 07:26:19;;;;;;;7.22;4.63;;;8.80;99.90;;;;;;6240017;22;20023;-82
2022/10/09 07:28:46;;;;;;;6.50;4.30;;;8.90;99.90;;;;;;6267580;22;20023;-81
2022/10/09 07:31:12;;;;;;;8.27;4.50;;;9.00;99.90;;;;;;6240887;22;20020;-82
2022/10/09 07:33:40;;;;;;;6.70;4.30;;;9.10;99.90;;;;;;6267638;22;20443;-82
2022/10/09 07:36:07;;;;;;;8.35;4.82;;;9.20;99.90;;;;;;6217172;22;20023;-80
2022/10/09 07:38:33;;;;;;;9.60;4.68;;;9.40;99.90;;;;;;6268790;22;20018;-81
2022/10/09 07:41:05;;;;;;;8.13;4.90;;;9.40;99.90;;;;;;6267807;22;20016;-80
2022/10/09 07:43:33;;;;;;;8.85;4.72;;;9.50;99.90;;;;;;6242707;22;20026;-80
2022/10/09 07:45:59;;;;;;;7.50;4.72;;;9.60;99.90;;;;;;6241273;22;20023;-79
2022/10/09 07:48:26;;;;;;;8.90;4.47;;;9.70;99.90;;;;;;6242230;22;20020;-78
2022/10/09 07:50:52;;;;;;;9.25;5.03;;;9.80;99.90;;;;;;6267525;22;20016;-79
2022/10/09 07:53:17;;;;;;;12.75;4.97;;;10.00;99.90;;;;;;6242182;22;20012;-80
2022/10/09 07:55:45;;;;;;;8.98;4.85;;;10.20;99.90;;;;;;6218549;22;20045;-78
2022/10/09 07:58:11;;;;;;;7.82;4.80;;;10.30;99.90;;;;;;6249276;22;20050;-78
2022/10/09 08:00:37;;;;;;;8.98;5.00;;;10.40;99.90;;;;;;6221498;22;20023;-79
2022/10/09 08:03:03;;;;;;;12.20;5.70;;;10.60;99.90;;;;;;6242021;22;20018;-80
2022/10/09 08:05:29;;;;;;;8.43;5.30;;;10.90;99.90;;;;;;6265547;22;20019;-80
2022/10/09 08:07:54;;;;;;;12.70;6.07;;;11.00;99.90;;;;;;6241337;22;20054;-78
2022/10/09 08:10:20;;;;;;;10.20;5.43;;;11.20;99.90;;;;;;6190272;22;20470;-78
2022/10/09 08:12:46;;;;;;;9.35;5.15;;;11.40;99.90;;;;;;6240527;22;20039;-80
2022/10/09 08:15:12;;;;;;;6.25;4.80;;;11.60;99.90;;;;;;6240762;22;20098;-81
2022/10/09 08:17:38;;;;;;;10.52;4.72;;;11.80;99.90;;;;;;6215772;22;20455;-80
2022/10/09 08:20:05;;;;;;;8.00;5.65;;;12.00;99.90;;;;;;6266197;22;20012;-79
2022/10/09 08:22:30;;;;;;;11.63;5.78;;;12.10;99.90;;;;;;6214784;22;20023;-79
2022/10/09 08:24:56;;;;;;;7.63;4.65;;;12.30;99.90;;;;;;6214896;22;20023;-81
2022/10/09 08:27:25;;;;;;;12.25;5.55;;;12.50;99.90;;;;;;6240030;22;20019;-79
2022/10/09 08:29:51;;;;;;;8.43;4.55;;;12.70;99.90;;;;;;6266882;22;20019;-78
2022/10/09 08:32:17;;;;;;;9.77;4.72;;;12.90;99.90;;;;;;6240953;22;20355;-77
2022/10/09 08:34:42;;;;;;;7.75;4.35;;;13.00;99.90;;;;;;6267449;22;20020;-79
2022/10/09 08:37:08;;;;;;;8.95;4.57;;;13.20;99.90;;;;;;6244010;22;20015;-79
2022/10/09 08:39:34;;;;;;;5.10;4.25;;;13.30;99.90;;;;;;6216038;22;20019;-80
2022/10/09 08:42:03;;;;;;;8.05;4.70;;;13.40;99.90;;;;;;6240167;22;20024;-80
2022/10/09 08:44:36;;;;;;;6.78;3.78;;;13.50;99.90;;;;;;6240672;22;20024;-81
2022/10/09 08:47:12;;;;;;;9.02;3.88;;;13.50;99.90;;;;;;6265964;22;20070;-81
2022/10/09 08:50:08;;;;;;;6.10;3.80;;;13.50;99.90;;;;;;6267665;22;20447;-82
2022/10/09 08:53:03;;;;;;;9.30;3.53;;;13.50;99.90;;;;;;6241407;22;20438;-81
2022/10/09 08:55:46;;;;;;;7.32;3.47;;;13.50;99.90;;;;;;6245615;22;20023;-82
2022/10/09 08:58:19;;;;;;;5.68;3.03;;;13.50;99.90;;;;;;6239801;22;20015;-81
2022/10/09 09:00:49;;;;;;;6.38;2.60;;;13.50;99.90;;;;;;6239122;22;20039;-80
2022/10/09 09:03:53;;;;;;;6.40;2.85;;;14.90;99.90;;;;;;6238595;22;20085;-82
2022/10/09 09:06:39;;;;;;;7.22;2.40;;;13.40;99.90;;;;;;6225347;22;20347;-81
2022/10/09 09:09:20;;;;;;;5.00;2.30;;;13.40;99.90;;;;;;6236257;22;20015;-82
2022/10/09 09:11:55;;;;;;;4.65;1.90;;;13.30;99.90;;;;;;6237155;22;20084;-81
2022/10/09 09:14:50;;;;;;;7.60;2.50;;;13.30;99.90;;;;;;6236887;22;20035;-84
2022/10/09 09:17:41;;;;;;;6.53;2.20;;;13.30;99.90;;;;;;6218253;22;20081;-82
2022/10/09 09:20:32;;;;;;;7.35;2.60;;;13.30;99.90;;;;;;6264911;22;20015;-82
2022/10/09 09:23:00;;;;;;;5.13;1.90;;;13.30;99.90;;;;;;6242204;22;20024;-82
2022/10/09 09:25:32;;;;;;;6.50;1.52;;;13.30;99.90;;;;;;6229391;22;20028;-82
2022/10/09 09:28:05;;;;;;;8.77;2.03;;;13.30;99.90;;;;;;6240394;22;20393;-82
2022/10/09 09:31:02;;;;;;;5.22;1.58;;;13.30;99.90;;;;;;6217156;22;20031;-82
2022/10/09 09:33:40;;;;;;;6.20;2.25;;;13.40;99.90;;;;;;6170798;22;20081;-82
2022/10/09 09:36:11;;;;;;;7.82;2.17;;;13.40;99.90;;;;;;6216754;22;20156;-80
2022/10/09 09:38:37;;;;;;;9.50;2.15;;;13.50;99.90;;;;;;6242755;22;20051;-81
2022/10/09 09:41:04;;;;;;;8.05;2.05;;;13.60;99.90;;;;;;6192363;22;20026;-81
2022/10/09 09:43:30;;;;;;;5.85;1.73;;;13.60;99.90;;;;;;6218950;22;20031;-82
2022/10/09 09:45:58;;;;;;;4.45;1.70;;;13.70;99.90;;;;;;6245751;22;20020;-81
2022/10/09 09:48:39;;;;;;;4.55;1.52;;;13.70;99.90;;;;;;6221680;22;20439;-81
2022/10/09 09:51:16;;;;;;;4.13;1.13;;;13.70;99.90;;;;;;6220461;22;20029;-81
2022/10/09 09:54:04;;;;;;;4.03;1.40;;;13.80;99.90;;;;;;6243814;22;20106;-80
2022/10/09 09:56:36;;;;;;;4.10;1.58;;;13.80;99.90;;;;;;6241827;22;20053;-81
2022/10/09 09:59:03;;;;;;;7.43;1.80;;;13.80;99.90;;;;;;6217791;22;20129;-82
2022/10/09 10:01:30;;;;;;;6.53;1.60;;;13.70;99.90;;;;;;6217037;22;20024;-82
2022/10/09 10:03:58;;;;;;;7.20;1.70;;;13.80;99.90;;;;;;6218118;22;20023;-81
2022/10/09 10:06:42;;;;;;;5.70;1.58;;;13.80;99.90;;;;;;6220053;22;20122;-81
2022/10/09 10:09:14;;;;;;;6.68;2.20;;;13.80;99.90;;;;;;6218452;22;20020;-80
2022/10/09 10:11:51;;;;;;;4.43;1.30;;;13.80;99.90;;;;;;6218014;22;20026;-80
2022/10/09 10:14:17;;;;;;;7.00;1.33;;;13.80;99.90;;;;;;6244247;22;20020;-80
2022/10/09 10:16:48;;;;;;;7.30;2.10;;;13.80;99.90;;;;;;6220457;22;20434;-80
2022/10/09 10:19:29;;;;;;;6.47;1.48;;;13.80;99.90;;;;;;6219945;22;20472;-81
2022/10/09 10:22:00;;;;;;;5.40;1.67;;;13.90;99.90;;;;;;6245981;22;20351;-80
2022/10/09 10:24:40;;;;;;;7.75;1.40;;;13.90;99.90;;;;;;6244222;22;20019;-80
2022/10/09 10:27:28;;;;;;;7.63;1.30;;;13.90;99.90;;;;;;6246153;22;20019;-80
2022/10/09 10:30:06;;;;;;;5.30;1.30;;;13.90;99.90;;;;;;6221220;22;20316;-80
2022/10/09 10:33:02;;;;;;;6.10;1.40;;;13.90;99.90;;;;;;6196227;22;20339;-80
2022/10/09 10:35:39;;;;;;;6.00;1.52;;;14.00;99.90;;;;;;6219548;22;20023;-81
2022/10/09 10:38:29;;;;;;;7.47;2.33;;;14.00;99.90;;;;;;6221054;22;20477;-80
2022/10/09 10:41:04;;;;;;;4.70;1.42;;;14.00;99.90;;;;;;6245774;22;20099;-80
2022/10/09 10:44:16;;;;;;;5.80;1.45;;;14.00;99.90;;;;;;6245725;22;20020;-80
2022/10/09 10:47:06;;;;;;;6.30;1.90;;;14.10;99.90;;;;;;6099560;23;20473;-79
2022/10/09 10:49:32;;;;;;;5.70;1.40;;;14.10;99.90;;;;;;6098966;23;20025;-80
2022/10/09 10:52:11;;;;;;;4.13;1.20;;;14.20;99.90;;;;;;6182729;22;20026;-81
2022/10/09 10:54:41;;;;;;;4.28;1.33;;;14.40;99.90;;;;;;6219959;22;20034;-80
2022/10/09 10:57:13;;;;;;;4.30;1.48;;;14.70;99.90;;;;;;6219890;22;20072;-80
2022/10/09 11:00:02;;;;;;;8.57;2.15;;;15.20;99.90;;;;;;6245746;22;20031;-80
2022/10/09 11:02:47;;;;;;;5.63;1.52;;;15.60;99.90;;;;;;6245243;22;20042;-81
2022/10/09 11:06:07;;;;;;;6.47;1.50;;;15.80;99.90;;;;;;6219041;22;20030;-80
2022/10/09 11:08:55;;;;;;;5.18;1.52;;;16.10;99.90;;;;;;6098433;23;20064;-81
2022/10/09 11:11:21;;;;;;;5.15;1.38;;;16.80;99.90;;;;;;6212613;22;20478;-80
2022/10/09 11:14:15;;;;;;;6.22;1.52;;;17.60;99.90;;;;;;6244951;22;20019;-81
2022/10/09 11:17:09;;;;;;;4.18;1.10;;;18.40;99.90;;;;;;6220294;22;20023;-80
2022/10/09 11:19:47;;;;;;;6.60;1.55;;;19.50;99.90;;;;;;6244563;22;20105;-80
2022/10/09 11:22:16;;;;;;;4.20;1.83;;;20.30;99.90;;;;;;6220032;22;20102;-80
2022/10/09 11:25:08;;;;;;;5.55;1.27;;;20.90;99.90;;;;;;6246245;22;20016;-81
2022/10/09 11:27:50;;;;;;;4.50;1.20;;;21.40;99.90;;;;;;6270467;22;20015;-81
2022/10/09 11:30:17;;;;;;;4.28;1.40;;;22.00;99.40;;;;;;6270123;22;20023;-81
2022/10/09 11:32:56;;;;;;;4.38;1.50;;;22.30;98.70;;;;;;6220604;22;20016;-80
2022/10/09 11:35:51;;;;;;;4.78;1.45;;;22.60;97.30;;;;;;6252148;22;20059;-80
2022/10/09 11:38:24;;;;;;;4.40;1.08;;;23.20;96.80;;;;;;6248022;22;20406;-80
2022/10/09 11:40:51;;;;;;;3.67;1.05;;;23.70;95.50;;;;;;6271521;22;20858;-80
2022/10/09 11:43:25;;;;;;;4.18;1.15;;;23.90;94.60;;;;;;6270987;22;20055;-81
2022/10/09 11:46:08;;;;;;;4.68;1.25;;;24.20;93.40;;;;;;6244508;22;20023;-80
2022/10/09 11:49:04;;;;;;;4.47;1.20;;;24.40;92.30;;;;;;6245715;22;20390;-80
2022/10/09 11:51:55;;;;;;;4.43;1.13;;;24.50;90.40;;;;;;6228651;22;20398;-81
2022/10/09 11:54:24;;;;;;;3.47;1.10;;;24.70;90.60;;;;;;6269715;22;20016;-81
2022/10/09 11:56:59;;;;;;;4.90;1.33;;;24.50;90.80;;;;;;6270245;22;20085;-80
2022/10/09 11:59:32;;;;;;;4.30;1.25;;;24.40;90.20;;;;;;6243954;22;20062;-80
2022/10/09 12:02:00;;;;;;;5.45;1.20;;;24.20;89.90;;;;;;6245774;22;20165;-80
2022/10/09 12:04:31;;;;;;;6.30;1.20;;;24.10;90.30;;;;;;6268729;22;20096;-80
2022/10/09 12:07:03;;;;;;;3.40;1.10;;;24.20;90.00;;;;;;6269986;22;20022;-80
2022/10/09 12:09:42;;;;;;;3.65;1.10;;;24.30;88.00;;;;;;6244290;22;20030;-81
2022/10/09 12:12:20;;;;;;;4.13;1.45;;;24.30;85.40;;;;;;6244829;22;20016;-80
2022/10/09 12:14:49;;;;;;;5.10;1.30;;;24.60;82.80;;;;;;6269310;22;20096;-80
2022/10/09 12:17:16;;;;;;;4.50;1.33;;;24.70;86.20;;;;;;6243663;22;20108;-80
2022/10/09 12:19:43;;;;;;;5.40;1.48;;;24.70;84.50;;;;;;6270104;22;20020;-81
2022/10/09 12:22:30;;;;;;;4.90;1.02;;;24.80;84.40;;;;;;6219667;22;20328;-81
2022/10/09 12:25:06;;;;;;;3.78;1.42;;;24.90;81.50;;;;;;6270189;22;20116;-80
2022/10/09 12:27:39;;;;;;;4.32;1.40;;;24.90;81.30;;;;;;6270019;22;20015;-81
2022/10/09 12:30:13;;;;;;;4.22;1.25;;;24.90;83.00;;;;;;6245126;22;20102;-81
2022/10/09 12:32:54;;;;;;;4.15;1.08;;;24.90;84.30;;;;;;6243502;22;20016;-80
2022/10/09 12:35:43;;;;;;;4.78;1.80;;;24.70;83.10;;;;;;6268569;22;20020;-80
2022/10/09 12:38:35;;;;;;;4.57;1.50;;;24.50;80.20;;;;;;6244114;22;20031;-81
2022/10/09 12:41:05;;;;;;;5.93;1.38;;;24.50;79.20;;;;;;6267003;22;20078;-80
2022/10/09 12:43:32;;;;;;;4.60;1.40;;;24.70;82.30;;;;;;6271375;22;20027;-81
2022/10/09 12:45:59;;;;;;;4.70;1.42;;;24.70;83.00;;;;;;6218874;22;20776;-81
2022/10/09 12:48:27;;;;;;;5.68;1.48;;;24.80;83.00;;;;;;6269200;22;20382;-81
2022/10/09 12:50:53;;;;;;;5.15;1.52;;;24.90;83.00;;;;;;6219165;22;20015;-81
2022/10/09 12:53:25;;;;;;;5.50;1.48;;;24.90;83.20;;;;;;6219012;22;20024;-81
2022/10/09 12:55:57;;;;;;;7.03;1.73;;;24.80;81.50;;;;;;6268623;22;20059;-81
2022/10/09 12:58:24;;;;;;;7.53;1.80;;;24.50;82.00;;;;;;6243275;22;20023;-81
2022/10/09 13:00:55;;;;;;;5.35;1.90;;;24.20;82.50;;;;;;6244688;22;20051;-81
2022/10/09 13:03:31;;;;;;;6.45;1.50;;;23.90;82.70;;;;;;6270592;22;20070;-81
2022/10/09 13:05:58;;;;;;;5.93;1.90;;;24.10;82.10;;;;;;6245715;22;20030;-81
2022/10/09 13:08:28;;;;;;;3.25;1.40;;;24.20;83.10;;;;;;6245104;22;20483;-81
2022/10/09 13:10:55;;;;;;;4.82;1.45;;;24.10;82.90;;;;;;6246390;22;20020;-81
2022/10/09 13:13:25;;;;;;;4.65;1.38;;;23.80;83.10;;;;;;6245865;22;20031;-81
2022/10/09 13:16:02;;;;;;;6.25;1.60;;;23.50;83.00;;;;;;6245478;22;20034;-80